Aérodrome :
LOGIN :

S'inscrire | Disclaimer

   EN    FR    IT 

 










Légende :    VFR   VFR Marginal   IFR   IFR Intensif   IFR Très Intensif
Visi : 
Plafond : 
>= 8 km
>= 3000ft
5 à 8 km
1000 à 3000 ft
1500m à 5 km
500 à 1000 ft
800 à 1500m
200 à 500 ft
< 800m
< 200 ft
Symboles :   Orages  Brouillard  Fortes neiges  Fortes précipitations  Vent > 20 kt
SIGMETs :   Divers  Orages  Givrage  Turbulence  Onde Orograph.  Cendres Volcan.







- Altitude de l'aérodrome : 464 ft
- Code IATA : EVX
- Voir les cartes d'approche


LFOE - Evreux

DERNIER METAR :
  • 231830Z AUTO 29008KT CAVOK 12/09 Q1030 NOSIG

METARs EXPIRÉS :
  • 231800Z AUTO 28007KT CAVOK 12/09 Q1030 NOSIG
  • 231730Z AUTO 29005KT CAVOK 12/08 Q1030 NOSIG
  • 231700Z AUTO 29010KT CAVOK 13/08 Q1030 NOSIG
  • 231630Z AUTO 28009KT CAVOK 14/07 Q1030 NOSIG
  • 231600Z AUTO 29010KT 260V320 CAVOK 15/06 Q1030 NOSIG

TAF TAF LFOE
Valide du 23 à 15h jusqu'au 24 à 15h UTC


231400Z 2315/2415 30012G22KT CAVOK
BECMG 2318/2321 30008KT
BECMG 2403/2405 4000 BR OVC003
PROB40
TEMPO 2405/2408 0500 BCFG VV///
BECMG 2408/2410 9999 NSW BKN008
BECMG 2410/2413 BKN018
Pas de NOTAMs connus pour ce terrain.



MET'MAP, la Météo Aéronautique d'un coup d'oeil ! - Copyright ORBIFLY Décembre 2007 - Disclaimer

ORBIFLY MET'MAP TEAM :

Programmation & Développement : Alexandra Zaïnal
Conception & Développement : Baudouin d'Aumeries
Co-Programmation & Développement : Marc-Olivier Méhu
Soutien technique & logistique : Manuel Goepfert

Contact : metmap@orbifly.com




SOURCES & CREDITS :

   NOAA